Indianapolis, Indiana
Current Conditions -  °F | °C
As of 4:54 AM on Friday 19 Dec 2014 (Local Time) from KIND Reporting Station
Few Clouds Few Clouds  
Wind Chill: 13°   Ceiling: Unl
Heat Index: 20°   Visibility: 8mi
Dew Point: 17°   Wind: 5mph
Humidity: 89%   Direction: 290°WNW
Pressure: 30.25"   Gusts: NA
Location:  39.77°N, 86.15°W
Report Text: KIND 190954Z 29004KT 8SM FEW015 M07/M08 A3025 RMK AO2 SLP253 T10671083
Loading
Personal Weather Stations






























Interactive Weather Map New forecast layout! Learn more

10-Day Weather Forecast

Advertisements
Track Severe Weather on mobile